Santa Ana, Argentina
Current Conditions -  °F | °C
As of 6:00 PM on Thursday 30 Oct 2014 (Local Time) from SGEN Reporting Station
Clear Clear  
Wind Chill: 23°   Ceiling: Unl
Heat Index: 23°   Visibility: 6mi
Dew Point: 19°   Wind: 6mph
Humidity: 78%   Direction: 140°SE
Pressure: 29.74"   Gusts: NA
Location:  27.37°S, 55.57°W
Report Text: SGEN 302100Z 14005KT CAVOK 23/19 Q1007
Loading
Personal Weather Stations






























Interactive Weather Map
Tropical Storm Tracking
New forecast layout! Learn more

10-Day Weather Forecast

Advertisements
Track Severe Weather on mobile